Time;durP1;ratioP1;P1;durP2;ratioP2;P2;SDS_P1;SDS_P2;PMS_P1;PMS_P2;Temp;Humidity;BMP_temperature;BMP_pressure;BME280_temperature;BME280_humidity;BME280_pressure;Samples;Min_cycle;Max_cycle;Signal;HPM_P1;HPM_P2
2022/07/24 00:00:19;;;;;;;;;16.00;14.67;;;;;-145.45;100.00;57426.63;5083707;27;46264;-70
2022/07/24 00:02:44;;;;;;;;;19.33;16.00;;;;;-145.45;100.00;57426.63;5081078;27;45468;-71
2022/07/24 00:05:10;;;;;;;;;16.67;16.33;;;;;-145.45;100.00;57426.63;5081171;27;45368;-70
2022/07/24 00:07:36;;;;;;;;;15.33;15.00;;;;;-145.45;100.00;57426.63;5081515;27;45328;-70
2022/07/24 00:10:06;;;;;;;;;18.00;16.33;;;;;-145.45;100.00;57426.63;5087407;27;45392;-70
2022/07/24 00:12:31;;;;;;;;;19.67;18.00;;;;;-145.45;100.00;57426.63;5082542;27;45284;-70
2022/07/24 00:14:57;;;;;;;;;16.33;14.67;;;;;-145.45;100.00;57426.63;5088139;27;45416;-70
2022/07/24 00:17:22;;;;;;;;;16.33;16.33;;;;;-145.45;100.00;57426.63;5084055;27;45498;-70
2022/07/24 00:19:48;;;;;;;;;16.67;14.00;;;;;-145.45;100.00;57426.63;5096072;27;45503;-70
2022/07/24 00:22:13;;;;;;;;;16.67;16.33;;;;;-145.45;100.00;57426.63;5082225;27;45454;-70
2022/07/24 00:24:39;;;;;;;;;18.33;15.67;;;;;-145.45;100.00;57426.63;5094273;27;45437;-70
2022/07/24 00:27:04;;;;;;;;;18.00;17.67;;;;;-145.45;100.00;57426.63;5082082;27;45379;-70
2022/07/24 00:29:29;;;;;;;;;17.33;15.67;;;;;-145.45;100.00;57426.63;5096843;27;48093;-70
2022/07/24 00:31:55;;;;;;;;;16.33;15.33;;;;;-145.45;100.00;57426.63;5081896;27;45328;-70
2022/07/24 00:34:20;;;;;;;;;18.33;15.67;;;;;-145.45;100.00;57426.63;5094858;27;45568;-70
2022/07/24 00:36:46;;;;;;;;;19.67;15.67;;;;;-145.45;100.00;57426.63;5081894;27;45517;-70
2022/07/24 00:39:12;;;;;;;;;21.33;16.00;;;;;-145.45;100.00;57426.63;5069961;27;46682;-71
2022/07/24 00:41:38;;;;;;;;;18.00;16.67;;;;;-145.45;100.00;57426.63;5084715;27;45253;-70
2022/07/24 00:44:13;;;;;;;;;16.33;16.33;;;;;-145.45;100.00;57426.63;5092249;27;45500;-70
2022/07/24 00:46:41;;;;;;;;;21.67;16.33;;;;;-145.45;100.00;57426.63;5087524;27;45399;-71
2022/07/24 00:49:09;;;;;;;;;18.00;15.67;;;;;-145.45;100.00;57426.63;5096311;27;45425;-70
2022/07/24 00:51:35;;;;;;;;;15.00;15.00;;;;;-145.45;100.00;57426.63;5089001;27;45463;-71
2022/07/24 00:54:03;;;;;;;;;18.00;14.00;;;;;-145.45;100.00;57426.63;5091646;27;45287;-71
2022/07/24 00:56:29;;;;;;;;;14.00;13.33;;;;;-145.45;100.00;57426.63;5087849;27;45654;-70
2022/07/24 00:58:55;;;;;;;;;17.00;17.00;;;;;-145.45;100.00;57426.63;5089383;27;46213;-70
2022/07/24 01:01:20;;;;;;;;;17.67;16.33;;;;;-145.45;100.00;57426.63;5086696;27;45290;-71
2022/07/24 01:03:45;;;;;;;;;15.67;14.67;;;;;-145.45;100.00;57426.63;5089584;27;46988;-70
2022/07/24 01:06:11;;;;;;;;;20.67;16.00;;;;;-145.45;100.00;57426.63;5063605;28;45297;-71
2022/07/24 01:08:37;;;;;;;;;13.00;11.33;;;;;-145.45;100.00;57426.63;5085548;27;45374;-70
2022/07/24 01:11:04;;;;;;;;;21.33;18.33;;;;;-145.45;100.00;57426.63;5083078;27;45265;-70
2022/07/24 01:13:30;;;;;;;;;11.33;11.33;;;;;-145.45;100.00;57426.63;5088601;27;45444;-70
2022/07/24 01:15:56;;;;;;;;;16.67;15.67;;;;;-145.45;100.00;57426.63;5091480;27;45502;-70
2022/07/24 01:18:22;;;;;;;;;17.67;16.33;;;;;-145.45;100.00;57426.63;5084192;27;46234;-70
2022/07/24 01:20:48;;;;;;;;;13.67;13.00;;;;;-145.45;100.00;57426.63;5082004;27;45329;-71
2022/07/24 01:23:13;;;;;;;;;19.67;17.00;;;;;-145.45;100.00;57426.63;5091120;27;45434;-70
2022/07/24 01:25:40;;;;;;;;;19.67;16.67;;;;;-145.45;100.00;57426.63;5089190;27;45446;-70
2022/07/24 01:28:05;;;;;;;;;18.00;15.33;;;;;-145.45;100.00;57426.63;5081195;27;45457;-70
2022/07/24 01:30:31;;;;;;;;;20.00;18.33;;;;;-145.45;100.00;57426.63;5090565;27;45315;-71
2022/07/24 01:32:56;;;;;;;;;22.67;17.67;;;;;-145.45;100.00;57426.63;5083811;27;45513;-71
2022/07/24 01:35:21;;;;;;;;;17.67;16.67;;;;;-145.45;100.00;57426.63;5091019;27;45431;-71
2022/07/24 01:37:47;;;;;;;;;18.00;16.67;;;;;-145.45;100.00;57426.63;5083203;27;45296;-71
2022/07/24 01:40:12;;;;;;;;;19.00;18.00;;;;;-145.45;100.00;57426.63;5088081;27;45398;-71
2022/07/24 01:42:37;;;;;;;;;18.33;17.33;;;;;-145.45;100.00;57426.63;5082041;27;45438;-71
2022/07/24 01:45:03;;;;;;;;;21.33;19.33;;;;;-145.45;100.00;57426.63;5090074;27;45446;-71
2022/07/24 01:47:29;;;;;;;;;15.67;15.67;;;;;-145.45;100.00;57426.63;5080440;27;45301;-70
2022/07/24 01:49:54;;;;;;;;;16.67;15.00;;;;;-145.45;100.00;57426.63;5093953;27;45327;-71
2022/07/24 01:52:20;;;;;;;;;21.00;21.00;;;;;-145.45;100.00;57426.63;5084571;27;45446;-70
2022/07/24 01:54:45;;;;;;;;;21.33;18.33;;;;;-145.45;100.00;57426.63;5078922;27;45961;-70
2022/07/24 01:57:10;;;;;;;;;22.33;18.67;;;;;-145.45;100.00;57426.63;5084361;27;45351;-70
2022/07/24 01:59:36;;;;;;;;;18.67;16.00;;;;;-145.45;100.00;57426.63;5094359;27;45395;-70
2022/07/24 02:02:01;;;;;;;;;19.00;16.00;;;;;-145.45;100.00;57426.63;5097338;27;46079;-70
2022/07/24 02:04:27;;;;;;;;;21.33;17.33;;;;;-145.45;100.00;57426.63;5091516;27;45374;-70
2022/07/24 02:06:52;;;;;;;;;19.67;18.33;;;;;-145.45;100.00;57426.63;5089398;27;45337;-71
2022/07/24 02:09:17;;;;;;;;;20.33;19.00;;;;;-145.45;100.00;57426.63;5089970;27;45354;-71
2022/07/24 02:11:43;;;;;;;;;16.33;14.33;;;;;-145.45;100.00;57426.63;5080626;27;45221;-71
2022/07/24 02:14:08;;;;;;;;;23.67;19.00;;;;;-145.45;100.00;57426.63;5084186;27;45498;-70
2022/07/24 02:16:34;;;;;;;;;18.67;15.33;;;;;-145.45;100.00;57426.63;5095156;27;46031;-70
2022/07/24 02:18:59;;;;;;;;;18.33;17.33;;;;;-145.45;100.00;57426.63;5088084;27;45292;-70
2022/07/24 02:21:25;;;;;;;;;21.00;19.00;;;;;-145.45;100.00;57426.63;5085320;27;45257;-70
2022/07/24 02:23:50;;;;;;;;;21.33;19.00;;;;;-145.45;100.00;57426.63;5067509;27;45930;-70
2022/07/24 02:26:16;;;;;;;;;21.33;18.33;;;;;-145.45;100.00;57426.63;5085258;27;45412;-70
2022/07/24 02:28:41;;;;;;;;;19.00;17.33;;;;;-145.45;100.00;57426.63;5087961;27;45427;-70
2022/07/24 02:31:07;;;;;;;;;25.00;22.00;;;;;-145.45;100.00;57426.63;5084882;27;45685;-70
2022/07/24 02:33:32;;;;;;;;;24.33;21.33;;;;;-145.45;100.00;57426.63;5072416;27;46265;-70
2022/07/24 02:35:57;;;;;;;;;18.67;18.67;;;;;-145.45;100.00;57426.63;5084806;27;45470;-70
2022/07/24 02:38:23;;;;;;;;;25.33;22.00;;;;;-145.45;100.00;57426.63;5087341;27;45360;-70
2022/07/24 02:40:48;;;;;;;;;28.67;23.33;;;;;-145.45;100.00;57426.63;5081422;27;45345;-71
2022/07/24 02:43:14;;;;;;;;;21.67;20.00;;;;;-145.45;100.00;57426.63;5084622;27;47401;-70
2022/07/24 02:45:41;;;;;;;;;23.00;22.00;;;;;-145.45;100.00;57426.63;5082706;27;45333;-70
2022/07/24 02:48:06;;;;;;;;;27.67;24.33;;;;;-145.45;100.00;57426.63;5083409;27;45322;-70
2022/07/24 02:50:35;;;;;;;;;22.67;20.00;;;;;-145.45;100.00;57426.63;5074244;27;45296;-70
2022/07/24 02:53:00;;;;;;;;;21.67;19.67;;;;;-145.45;100.00;57426.63;5084115;27;45480;-70
2022/07/24 02:55:28;;;;;;;;;19.00;18.00;;;;;-145.45;100.00;57426.63;5089339;27;45244;-70
2022/07/24 02:57:54;;;;;;;;;20.67;19.67;;;;;-145.45;100.00;57426.63;5082681;27;46037;-70
2022/07/24 03:00:19;;;;;;;;;22.00;21.00;;;;;-145.45;100.00;57426.63;5091832;27;45395;-70
2022/07/24 03:02:45;;;;;;;;;19.67;18.67;;;;;-145.45;100.00;57426.63;5081460;27;45399;-70
2022/07/24 03:05:10;;;;;;;;;28.00;21.00;;;;;-145.45;100.00;57426.63;5076180;27;45882;-70
2022/07/24 03:07:36;;;;;;;;;23.00;17.67;;;;;-145.45;100.00;57426.63;5093299;27;45331;-70
2022/07/24 03:10:03;;;;;;;;;26.33;22.33;;;;;-145.45;100.00;57426.63;5091458;27;45432;-70
2022/07/24 03:12:29;;;;;;;;;25.33;20.00;;;;;-145.45;100.00;57426.63;5079347;27;45316;-70
2022/07/24 03:14:54;;;;;;;;;17.00;17.00;;;;;-145.45;100.00;57426.63;5091557;27;46709;-70
2022/07/24 03:17:19;;;;;;;;;18.00;17.00;;;;;-145.45;100.00;57426.63;5079482;28;45336;-71
2022/07/24 03:19:45;;;;;;;;;17.00;17.00;;;;;-145.45;100.00;57426.63;5089901;27;45280;-70
2022/07/24 03:22:10;;;;;;;;;20.00;18.67;;;;;-145.45;100.00;57426.63;5079635;27;45243;-70
2022/07/24 03:24:35;;;;;;;;;22.00;19.67;;;;;-145.45;100.00;57426.63;5093062;27;46386;-70
2022/07/24 03:27:01;;;;;;;;;19.67;19.00;;;;;-145.45;100.00;57426.63;5063694;28;45313;-70
2022/07/24 03:29:26;;;;;;;;;20.33;16.67;;;;;-145.45;100.00;57426.63;5088432;27;45278;-70
2022/07/24 03:31:51;;;;;;;;;25.00;20.33;;;;;-145.45;100.00;57426.63;5079747;27;46641;-70
2022/07/24 03:34:17;;;;;;;;;18.00;16.67;;;;;-145.45;100.00;57426.63;5094048;27;45462;-70
2022/07/24 03:36:42;;;;;;;;;21.00;17.00;;;;;-145.45;100.00;57426.63;5079032;27;45353;-70
2022/07/24 03:39:07;;;;;;;;;25.00;19.00;;;;;-145.45;100.00;57426.63;5089096;27;45310;-70
2022/07/24 03:41:33;;;;;;;;;16.00;14.00;;;;;-145.45;100.00;57426.63;5078491;27;45320;-72
2022/07/24 03:43:58;;;;;;;;;22.33;21.00;;;;;-145.45;100.00;57426.63;5088325;27;45505;-71
2022/07/24 03:46:23;;;;;;;;;18.00;15.33;;;;;-145.45;100.00;57426.63;5072075;27;45288;-70
2022/07/24 03:48:49;;;;;;;;;16.33;16.00;;;;;-145.45;100.00;57426.63;5090574;27;45735;-70
2022/07/24 03:51:15;;;;;;;;;20.67;20.67;;;;;-145.45;100.00;57426.63;5079253;28;45258;-70
2022/07/24 03:53:40;;;;;;;;;20.00;20.00;;;;;-145.45;100.00;57426.63;5068473;27;45496;-70
2022/07/24 03:56:09;;;;;;;;;19.00;17.00;;;;;-145.45;100.00;57426.63;5078987;27;45471;-70
2022/07/24 03:58:34;;;;;;;;;18.33;16.00;;;;;-145.45;100.00;57426.63;5087070;27;45269;-70
2022/07/24 04:01:00;;;;;;;;;20.00;16.67;;;;;-145.45;100.00;57426.63;5064757;28;47141;-70
2022/07/24 04:03:25;;;;;;;;;15.33;15.33;;;;;-145.45;100.00;57426.63;5088173;27;45431;-70
2022/07/24 04:05:51;;;;;;;;;17.33;17.33;;;;;-145.45;100.00;57426.63;5083263;27;45253;-70
2022/07/24 04:08:16;;;;;;;;;19.67;18.33;;;;;-145.45;100.00;57426.63;5096187;27;45212;-70
2022/07/24 04:10:41;;;;;;;;;16.67;16.67;;;;;-145.45;100.00;57426.63;5086325;27;45283;-71
2022/07/24 04:13:07;;;;;;;;;20.33;20.33;;;;;-145.45;100.00;57426.63;5082249;27;45245;-70
2022/07/24 04:15:32;;;;;;;;;20.33;19.33;;;;;-145.45;100.00;57426.63;5086318;27;45338;-70
2022/07/24 04:17:57;;;;;;;;;20.67;19.00;;;;;-145.45;100.00;57426.63;5080855;27;45308;-71
2022/07/24 04:20:23;;;;;;;;;25.00;21.67;;;;;-145.45;100.00;57426.63;5093031;27;45291;-70
2022/07/24 04:22:48;;;;;;;;;23.00;20.00;;;;;-145.45;100.00;57426.63;5086479;27;46320;-72
2022/07/24 04:25:13;;;;;;;;;18.67;17.33;;;;;-145.45;100.00;57426.63;5095795;27;45427;-70
2022/07/24 04:27:39;;;;;;;;;20.67;19.00;;;;;-145.45;100.00;57426.63;5085453;27;45284;-71
2022/07/24 04:30:05;;;;;;;;;23.67;21.67;;;;;-145.45;100.00;57426.63;5090839;27;45477;-70
2022/07/24 04:32:31;;;;;;;;;23.67;20.00;;;;;-145.45;100.00;57426.63;5078554;27;45468;-70
2022/07/24 04:34:56;;;;;;;;;22.33;21.00;;;;;-145.45;100.00;57426.63;5086768;27;45349;-70
2022/07/24 04:37:22;;;;;;;;;22.33;21.33;;;;;-145.45;100.00;57426.63;5078725;27;45348;-70
2022/07/24 04:39:47;;;;;;;;;25.00;24.33;;;;;-145.45;100.00;57426.63;5087520;27;45261;-70
2022/07/24 04:42:12;;;;;;;;;23.00;21.67;;;;;-145.45;100.00;57426.63;5078240;27;45596;-70
2022/07/24 04:44:38;;;;;;;;;23.00;22.33;;;;;-145.45;100.00;57426.63;5086976;27;45274;-71
2022/07/24 04:47:03;;;;;;;;;22.67;20.67;;;;;-145.45;100.00;57426.63;5078482;28;45203;-70
2022/07/24 04:49:28;;;;;;;;;30.00;22.67;;;;;-145.45;100.00;57426.63;5087300;27;45353;-70
2022/07/24 04:51:54;;;;;;;;;21.67;20.67;;;;;-145.45;100.00;57426.63;5078186;28;46096;-70
2022/07/24 04:54:19;;;;;;;;;30.00;25.00;;;;;-145.45;100.00;57426.63;5089500;27;45238;-70
2022/07/24 04:56:44;;;;;;;;;22.67;20.67;;;;;-145.45;100.00;57426.63;5081856;27;45467;-70
2022/07/24 04:59:10;;;;;;;;;26.33;24.67;;;;;-145.45;100.00;57426.63;5089721;27;48014;-70
2022/07/24 05:01:35;;;;;;;;;24.33;23.00;;;;;-145.45;100.00;57426.63;5085553;27;45264;-70
2022/07/24 05:04:01;;;;;;;;;28.67;23.33;;;;;-145.45;100.00;57426.63;5089303;27;45350;-70
2022/07/24 05:06:26;;;;;;;;;25.00;23.67;;;;;-145.45;100.00;57426.63;5089229;27;45492;-71
2022/07/24 05:08:52;;;;;;;;;25.67;24.33;;;;;-145.45;100.00;57426.63;5095337;27;45471;-71
2022/07/24 05:11:17;;;;;;;;;28.00;25.00;;;;;-145.45;100.00;57426.63;5064601;27;47235;-71
2022/07/24 05:13:42;;;;;;;;;24.00;23.00;;;;;-145.45;100.00;57426.63;5086501;27;45404;-71
2022/07/24 05:16:08;;;;;;;;;23.33;22.67;;;;;-145.45;100.00;57426.63;5088117;27;45491;-71
2022/07/24 05:18:33;;;;;;;;;24.00;22.33;;;;;-145.45;100.00;57426.63;5083299;27;45550;-71
2022/07/24 05:20:59;;;;;;;;;20.67;17.33;;;;;-145.45;100.00;57426.63;5089590;27;45465;-70
2022/07/24 05:23:24;;;;;;;;;24.00;24.00;;;;;-145.45;100.00;57426.63;5086865;27;45340;-71
2022/07/24 05:25:50;;;;;;;;;26.67;25.67;;;;;-145.45;100.00;57426.63;5100628;27;45426;-70
2022/07/24 05:28:15;;;;;;;;;27.33;25.00;;;;;-145.45;100.00;57426.63;5087531;27;46937;-70
2022/07/24 05:30:40;;;;;;;;;24.67;23.33;;;;;-145.45;100.00;57426.63;5090376;27;46499;-70
2022/07/24 05:33:06;;;;;;;;;32.00;25.67;;;;;-145.45;100.00;57426.63;5085240;27;45326;-71
2022/07/24 05:35:31;;;;;;;;;28.33;24.00;;;;;-145.45;100.00;57426.63;5096373;27;45409;-71
2022/07/24 05:37:57;;;;;;;;;24.00;22.00;;;;;-145.45;100.00;57426.63;5099955;27;45351;-70
2022/07/24 05:40:22;;;;;;;;;26.67;22.67;;;;;-145.45;100.00;57426.63;5088608;27;45380;-70
2022/07/24 05:42:48;;;;;;;;;25.00;21.67;;;;;-145.45;100.00;57426.63;5082644;27;45930;-69
2022/07/24 05:45:13;;;;;;;;;25.67;23.67;;;;;-145.45;100.00;57426.63;5080153;27;45271;-68
2022/07/24 05:47:41;;;;;;;;;23.33;21.67;;;;;-145.45;100.00;57426.63;5083692;27;45461;-69
2022/07/24 05:50:08;;;;;;;;;21.00;19.67;;;;;-145.45;100.00;57426.63;5099265;27;46147;-69
2022/07/24 05:52:34;;;;;;;;;24.00;23.67;;;;;-145.45;100.00;57426.63;5094026;27;45400;-69
2022/07/24 05:54:59;;;;;;;;;23.00;21.00;;;;;-145.45;100.00;57426.63;5090960;27;45440;-69
2022/07/24 05:57:24;;;;;;;;;22.33;20.00;;;;;-145.45;100.00;57426.63;5073805;28;45394;-69
2022/07/24 05:59:50;;;;;;;;;22.33;18.00;;;;;-145.45;100.00;57426.63;5088170;27;45499;-69
2022/07/24 06:02:15;;;;;;;;;18.33;17.00;;;;;-145.45;100.00;57426.63;5079844;27;45473;-69
2022/07/24 06:04:41;;;;;;;;;20.00;19.67;;;;;-145.45;100.00;57426.63;5069893;27;45422;-69
2022/07/24 06:07:09;;;;;;;;;21.33;17.33;;;;;-145.45;100.00;57426.63;5081379;27;45341;-69
2022/07/24 06:09:35;;;;;;;;;22.00;20.33;;;;;-145.45;100.00;57426.63;5087893;27;46541;-69
2022/07/24 06:12:00;;;;;;;;;22.33;20.00;;;;;-145.45;100.00;57426.63;5082289;27;45301;-69
2022/07/24 06:14:26;;;;;;;;;19.00;19.00;;;;;-145.45;100.00;57426.63;5092373;27;47654;-69
2022/07/24 06:16:51;;;;;;;;;18.67;18.67;;;;;-145.45;100.00;57426.63;5086377;27;45508;-68
2022/07/24 06:19:16;;;;;;;;;19.33;17.00;;;;;-145.45;100.00;57426.63;5085442;27;45603;-69
2022/07/24 06:21:42;;;;;;;;;17.67;17.00;;;;;-145.45;100.00;57426.63;5082461;27;45879;-69
2022/07/24 06:24:07;;;;;;;;;22.67;19.33;;;;;-145.45;100.00;57426.63;5092183;27;45378;-68
2022/07/24 06:26:33;;;;;;;;;15.67;14.33;;;;;-145.45;100.00;57426.63;5080169;27;45751;-68
2022/07/24 06:28:58;;;;;;;;;15.00;14.67;;;;;-145.45;100.00;57426.63;5090017;27;45440;-68
2022/07/24 06:31:23;;;;;;;;;21.00;19.67;;;;;-145.45;100.00;57426.63;5079923;27;45377;-69
2022/07/24 06:33:49;;;;;;;;;16.33;16.33;;;;;-145.45;100.00;57426.63;5090353;27;45626;-69
2022/07/24 06:36:14;;;;;;;;;21.33;18.67;;;;;-145.45;100.00;57426.63;5081220;27;45475;-69
2022/07/24 06:38:39;;;;;;;;;19.33;17.33;;;;;-145.45;100.00;57426.63;5088834;27;45986;-69
2022/07/24 06:41:05;;;;;;;;;17.33;17.33;;;;;-145.45;100.00;57426.63;5091881;27;45301;-69
2022/07/24 06:43:30;;;;;;;;;18.00;17.67;;;;;-145.45;100.00;57426.63;5088650;27;45615;-69
2022/07/24 06:45:55;;;;;;;;;15.67;13.00;;;;;-145.45;100.00;57426.63;5089865;27;45560;-69
2022/07/24 06:48:21;;;;;;;;;20.33;17.00;;;;;-145.45;100.00;57426.63;5086213;27;45555;-68
2022/07/24 06:50:46;;;;;;;;;16.00;15.33;;;;;-145.45;100.00;57426.63;5088972;27;45317;-68
2022/07/24 06:53:12;;;;;;;;;22.67;20.00;;;;;-145.45;100.00;57426.63;5084207;27;44761;-72
2022/07/24 06:55:37;;;;;;;;;18.33;15.00;;;;;-145.45;100.00;57426.63;5084910;27;45325;-70
2022/07/24 06:58:02;;;;;;;;;21.33;20.00;;;;;-145.45;100.00;57426.63;5081463;27;46906;-69
2022/07/24 07:00:28;;;;;;;;;22.67;18.67;;;;;-145.45;100.00;57426.63;5083964;27;45291;-69
2022/07/24 07:02:53;;;;;;;;;20.67;19.00;;;;;-145.45;100.00;57426.63;5072088;27;45311;-69
2022/07/24 07:05:19;;;;;;;;;17.00;15.67;;;;;-145.45;100.00;57426.63;5084777;27;45596;-69
2022/07/24 07:07:44;;;;;;;;;23.33;21.00;;;;;-145.45;100.00;57426.63;5082955;27;47728;-69
2022/07/24 07:10:09;;;;;;;;;17.67;16.33;;;;;-145.45;100.00;57426.63;5084694;27;45532;-69
2022/07/24 07:12:35;;;;;;;;;21.00;19.33;;;;;-145.45;100.00;57426.63;5080292;27;45455;-69
2022/07/24 07:15:01;;;;;;;;;22.00;17.33;;;;;-145.45;100.00;57426.63;5083159;27;45757;-69
2022/07/24 07:17:27;;;;;;;;;19.33;16.33;;;;;-145.45;100.00;57426.63;5077842;27;45449;-69
2022/07/24 07:19:52;;;;;;;;;19.00;16.33;;;;;-145.45;100.00;57426.63;5085929;27;45359;-69
2022/07/24 07:22:17;;;;;;;;;18.00;16.67;;;;;-145.45;100.00;57426.63;5080167;27;45791;-69
2022/07/24 07:24:43;;;;;;;;;17.00;17.00;;;;;-145.45;100.00;57426.63;5083324;27;45552;-69
2022/07/24 07:27:08;;;;;;;;;17.67;14.00;;;;;-145.45;100.00;57426.63;5082541;27;46091;-69
2022/07/24 07:29:33;;;;;;;;;17.75;15.75;;;;;-145.45;100.00;57426.63;5074716;28;45502;-70
2022/07/24 07:31:59;;;;;;;;;19.00;17.67;;;;;-145.45;100.00;57426.63;5081525;27;45403;-69
2022/07/24 07:34:24;;;;;;;;;15.00;15.00;;;;;-145.45;100.00;57426.63;5090763;27;46456;-69
2022/07/24 07:36:49;;;;;;;;;12.00;12.00;;;;;-145.45;100.00;57426.63;5073517;27;45567;-69
2022/07/24 07:39:15;;;;;;;;;15.50;15.00;;;;;-145.45;100.00;57426.63;5084253;27;45413;-69
2022/07/24 07:41:40;;;;;;;;;18.00;16.75;;;;;-145.45;100.00;57426.63;5082777;27;45484;-69
2022/07/24 07:44:06;;;;;;;;;16.25;16.25;;;;;-145.45;100.00;57426.63;5085869;27;45448;-70
2022/07/24 07:46:31;;;;;;;;;22.50;19.75;;;;;-145.45;100.00;57426.63;5080882;27;45298;-71
2022/07/24 07:48:56;;;;;;;;;16.50;15.75;;;;;-145.45;100.00;57426.63;5083691;27;45350;-70
2022/07/24 07:51:22;;;;;;;;;18.75;18.00;;;;;-145.45;100.00;57426.63;5081108;27;45743;-70
2022/07/24 07:53:48;;;;;;;;;15.00;15.00;;;;;-145.45;100.00;57426.63;5084375;27;45462;-70
2022/07/24 07:56:13;;;;;;;;;21.25;18.50;;;;;-145.45;100.00;57426.63;5080731;27;45298;-71
2022/07/24 07:58:39;;;;;;;;;17.75;17.00;;;;;-145.45;100.00;57426.63;5068513;27;45489;-71
2022/07/24 08:01:04;;;;;;;;;19.50;19.00;;;;;-145.45;100.00;57426.63;5080821;27;45383;-71
2022/07/24 08:03:29;;;;;;;;;18.75;17.75;;;;;-145.45;100.00;57426.63;5083834;27;45444;-71
2022/07/24 08:05:55;;;;;;;;;18.25;18.25;;;;;-145.45;100.00;57426.63;5080806;27;46280;-71
2022/07/24 08:08:20;;;;;;;;;19.75;19.25;;;;;-145.45;100.00;57426.63;5076173;27;45382;-71
2022/07/24 08:10:46;;;;;;;;;21.25;18.50;;;;;-145.45;100.00;57426.63;5078816;27;45283;-71
2022/07/24 08:13:12;;;;;;;;;18.25;16.25;;;;;-145.45;100.00;57426.63;5080260;27;45285;-70
2022/07/24 08:15:37;;;;;;;;;21.00;19.50;;;;;-145.45;100.00;57426.63;5078787;27;45280;-71
2022/07/24 08:18:04;;;;;;;;;15.75;13.75;;;;;-145.45;100.00;57426.63;5081035;27;45426;-70
2022/07/24 08:20:29;;;;;;;;;17.00;16.75;;;;;-145.45;100.00;57426.63;5071238;28;45343;-70
2022/07/24 08:22:55;;;;;;;;;26.00;19.50;;;;;-145.45;100.00;57426.63;5080929;27;45391;-71
2022/07/24 08:25:22;;;;;;;;;17.25;15.50;;;;;-145.45;100.00;57426.63;5089278;27;45387;-71
2022/07/24 08:27:47;;;;;;;;;15.60;14.60;;;;;-145.45;100.00;57426.63;5078919;27;45585;-72
2022/07/24 08:30:13;;;;;;;;;17.00;17.00;;;;;-145.45;100.00;57426.63;5090578;27;45462;-76
2022/07/24 08:32:38;;;;;;;;;18.00;16.25;;;;;-145.45;100.00;57426.63;5081818;27;45463;-77
2022/07/24 08:35:04;;;;;;;;;17.50;17.50;;;;;-145.45;100.00;57426.63;5092804;27;45426;-77
2022/07/24 08:37:30;;;;;;;;;14.20;13.40;;;;;-145.45;100.00;57426.63;5063474;27;46746;-77
2022/07/24 08:39:55;;;;;;;;;18.00;16.25;;;;;-145.45;100.00;57426.63;5095610;27;45381;-77
2022/07/24 08:42:21;;;;;;;;;13.75;13.75;;;;;-145.45;100.00;57426.63;5087262;27;45434;-78
2022/07/24 08:44:47;;;;;;;;;18.00;16.00;;;;;-145.45;100.00;57426.63;5094301;27;45393;-75
2022/07/24 08:47:14;;;;;;;;;13.75;12.75;;;;;-145.45;100.00;57426.63;5088159;27;45229;-77
2022/07/24 08:49:40;;;;;;;;;11.20;10.80;;;;;-145.45;100.00;57426.63;5090998;27;45466;-76
2022/07/24 08:52:09;;;;;;;;;13.75;12.75;;;;;-145.45;100.00;57426.63;5087464;27;45328;-77
2022/07/24 08:54:35;;;;;;;;;15.00;13.60;;;;;-145.45;100.00;57426.63;5089523;27;46093;-75
2022/07/24 08:57:03;;;;;;;;;13.40;13.00;;;;;-145.45;100.00;57426.63;5086227;27;45290;-75
2022/07/24 08:59:28;;;;;;;;;14.00;11.00;;;;;-145.45;100.00;57426.63;5088921;27;45477;-74
2022/07/24 09:01:54;;;;;;;;;13.25;11.75;;;;;-145.45;100.00;57426.63;5075241;27;45920;-75
2022/07/24 09:04:43;;;;;;;;;12.50;11.25;;;;;-145.45;100.00;57426.63;5098749;27;45359;-75
2022/07/24 09:07:13;;;;;;;;;15.00;12.80;;;;;-145.45;100.00;57426.63;5091861;27;45157;-77
2022/07/24 09:09:39;;;;;;;;;13.00;13.00;;;;;-145.45;100.00;57426.63;5077348;27;45611;-77
2022/07/24 09:12:16;;;;;;;;;10.60;10.60;;;;;-145.45;100.00;57426.63;5082627;27;45605;-77
2022/07/24 09:14:44;;;;;;;;;13.00;12.20;;;;;-145.45;100.00;57426.63;5079038;27;48235;-77
2022/07/24 09:17:11;;;;;;;;;11.80;10.60;;;;;-145.45;100.00;57426.63;5066431;28;45466;-78
2022/07/24 09:19:56;;;;;;;;;12.00;11.20;;;;;-145.45;100.00;57426.63;5095321;27;45559;-77
2022/07/24 09:22:36;;;;;;;;;10.20;10.20;;;;;-145.45;100.00;57426.63;5084387;27;46036;-77
2022/07/24 09:25:16;;;;;;;;;11.20;9.60;;;;;-145.45;100.00;57426.63;5078249;27;46194;-77
2022/07/24 09:27:47;;;;;;;;;11.00;11.00;;;;;-145.45;100.00;57426.63;5081221;27;45292;-75
2022/07/24 09:30:35;;;;;;;;;11.60;10.60;;;;;-145.45;100.00;57426.63;5084927;27;45348;-75
2022/07/24 09:33:06;;;;;;;;;10.00;8.80;;;;;-145.45;100.00;57426.63;5084350;27;45308;-75
2022/07/24 09:35:45;;;;;;;;;8.80;8.80;;;;;-145.45;100.00;57426.63;5091411;27;46464;-75
2022/07/24 09:38:16;;;;;;;;;9.60;8.20;;;;;-145.45;100.00;57426.63;5085273;27;45383;-75
2022/07/24 09:40:49;;;;;;;;;11.80;10.00;;;;;-145.45;100.00;57426.63;5093347;27;45517;-75
2022/07/24 09:43:24;;;;;;;;;10.80;10.00;;;;;-145.45;100.00;57426.63;5087556;27;45680;-75
2022/07/24 09:46:04;;;;;;;;;5.80;5.40;;;;;-145.45;100.00;57426.63;5092621;27;45265;-76
2022/07/24 09:48:34;;;;;;;;;10.20;7.20;;;;;-145.45;100.00;57426.63;5071715;27;45422;-75
2022/07/24 09:51:03;;;;;;;;;7.80;7.80;;;;;-145.45;100.00;57426.63;5073231;27;45335;-76
2022/07/24 09:53:31;;;;;;;;;8.40;7.20;;;;;-145.45;100.00;57426.63;5069079;27;45642;-76
2022/07/24 09:56:05;;;;;;;;;7.60;7.40;;;;;-145.45;100.00;57426.63;5086909;27;46399;-76
2022/07/24 09:58:33;;;;;;;;;7.00;7.00;;;;;-145.45;100.00;57426.63;5093518;27;47028;-76
2022/07/24 10:01:00;;;;;;;;;8.20;8.20;;;;;-145.45;100.00;57426.63;5091657;27;45439;-77
2022/07/24 10:03:32;;;;;;;;;11.20;9.40;;;;;-145.45;100.00;57426.63;5086630;27;45583;-76
2022/07/24 10:06:01;;;;;;;;;5.60;4.60;;;;;-145.45;100.00;57426.63;5080696;27;47110;-76
2022/07/24 10:08:27;;;;;;;;;7.00;7.00;;;;;-145.45;100.00;57426.63;5084756;27;45454;-76
2022/07/24 10:10:55;;;;;;;;;9.40;8.20;;;;;-145.45;100.00;57426.63;5084610;27;45384;-77
2022/07/24 10:13:21;;;;;;;;;8.20;8.00;;;;;-145.45;100.00;57426.63;5083105;27;46463;-77
2022/07/24 10:16:04;;;;;;;;;7.50;7.00;;;;;-145.45;100.00;57426.63;5089495;27;46346;-77
2022/07/24 10:18:52;;;;;;;;;8.00;7.00;;;;;-145.45;100.00;57426.63;5084510;27;45300;-77
2022/07/24 10:21:22;;;;;;;;;7.40;7.40;;;;;-145.45;100.00;57426.63;5064206;28;45261;-78
2022/07/24 10:24:03;;;;;;;;;9.60;8.60;;;;;-145.45;100.00;57426.63;5085581;27;45708;-78
2022/07/24 10:26:36;;;;;;;;;9.00;8.20;;;;;-145.45;100.00;57426.63;5069593;28;47014;-77
2022/07/24 10:29:10;;;;;;;;;6.20;6.20;;;;;-145.45;100.00;57426.63;5088821;27;45536;-77
2022/07/24 10:31:41;;;;;;;;;6.60;6.60;;;;;-145.45;100.00;57426.63;5080561;27;45457;-77
2022/07/24 10:34:13;;;;;;;;;6.60;6.60;;;;;-145.45;100.00;57426.63;5069369;27;45691;-77
2022/07/24 10:36:48;;;;;;;;;8.00;8.00;;;;;-145.45;100.00;57426.63;5073330;28;47236;-77
2022/07/24 10:39:23;;;;;;;;;8.20;7.80;;;;;-145.45;100.00;57426.63;5090723;27;45360;-77
2022/07/24 10:42:02;;;;;;;;;6.40;6.00;;;;;-145.45;100.00;57426.63;5080784;28;45374;-76
2022/07/24 10:44:28;;;;;;;;;5.60;5.60;;;;;-145.45;100.00;57426.63;5092540;27;45454;-77
2022/07/24 10:47:02;;;;;;;;;6.00;6.00;;;;;-145.45;100.00;57426.63;5087022;27;45877;-77
2022/07/24 10:49:46;;;;;;;;;4.60;4.60;;;;;-145.45;100.00;57426.63;5088928;27;45544;-77
2022/07/24 10:52:29;;;;;;;;;7.40;6.00;;;;;-145.45;100.00;57426.63;5086047;27;45281;-77